sensor_id;sensor_type;location;lat;lon;timestamp;P1;durP1;ratioP1;P2;durP2;ratioP2
14789;SDS011;7486;51.010;10.366;2022-09-09T00:06:55;1.35;;;1.10;;
14789;SDS011;7486;51.010;10.366;2022-09-09T00:09:36;3.33;;;1.08;;
14789;SDS011;7486;51.010;10.366;2022-09-09T00:12:14;3.00;;;1.40;;
14789;SDS011;7486;51.010;10.366;2022-09-09T00:14:51;1.63;;;0.88;;
14789;SDS011;7486;51.010;10.366;2022-09-09T00:20:19;2.42;;;1.02;;
14789;SDS011;7486;51.010;10.366;2022-09-09T00:22:53;1.58;;;1.10;;
14789;SDS011;7486;51.010;10.366;2022-09-09T00:25:32;2.65;;;1.10;;
14789;SDS011;7486;51.010;10.366;2022-09-09T00:28:08;2.00;;;1.05;;
14789;SDS011;7486;51.010;10.366;2022-09-09T00:30:43;3.03;;;1.25;;
14789;SDS011;7486;51.010;10.366;2022-09-09T00:33:12;3.90;;;1.40;;
14789;SDS011;7486;51.010;10.366;2022-09-09T00:35:42;3.83;;;1.30;;
14789;SDS011;7486;51.010;10.366;2022-09-09T00:38:14;2.00;;;0.95;;
14789;SDS011;7486;51.010;10.366;2022-09-09T00:40:52;1.48;;;1.05;;
14789;SDS011;7486;51.010;10.366;2022-09-09T00:43:36;3.20;;;1.23;;
14789;SDS011;7486;51.010;10.366;2022-09-09T00:56:35;1.95;;;1.23;;
14789;SDS011;7486;51.010;10.366;2022-09-09T00:59:47;3.97;;;1.40;;
14789;SDS011;7486;51.010;10.366;2022-09-09T01:02:08;2.03;;;1.10;;
14789;SDS011;7486;51.010;10.366;2022-09-09T01:04:45;2.65;;;1.08;;
14789;SDS011;7486;51.010;10.366;2022-09-09T01:07:15;1.77;;;1.08;;
14789;SDS011;7486;51.010;10.366;2022-09-09T01:09:56;3.38;;;1.30;;
14789;SDS011;7486;51.010;10.366;2022-09-09T01:12:28;2.00;;;1.00;;
14789;SDS011;7486;51.010;10.366;2022-09-09T01:15:11;1.95;;;1.00;;
14789;SDS011;7486;51.010;10.366;2022-09-09T01:20:26;2.92;;;1.20;;
14789;SDS011;7486;51.010;10.366;2022-09-09T01:28:22;2.60;;;1.23;;
14789;SDS011;7486;51.010;10.366;2022-09-09T01:30:57;1.67;;;1.10;;
14789;SDS011;7486;51.010;10.366;2022-09-09T01:33:29;3.58;;;1.13;;
14789;SDS011;7486;51.010;10.366;2022-09-09T01:36:00;2.00;;;1.10;;
14789;SDS011;7486;51.010;10.366;2022-09-09T01:38:42;2.83;;;1.10;;
14789;SDS011;7486;51.010;10.366;2022-09-09T01:41:09;2.08;;;0.95;;
14789;SDS011;7486;51.010;10.366;2022-09-09T01:43:45;2.97;;;1.20;;
14789;SDS011;7486;51.010;10.366;2022-09-09T01:46:13;3.65;;;1.10;;
14789;SDS011;7486;51.010;10.366;2022-09-09T01:48:41;2.40;;;1.13;;
14789;SDS011;7486;51.010;10.366;2022-09-09T01:51:10;5.18;;;1.30;;
14789;SDS011;7486;51.010;10.366;2022-09-09T01:53:37;2.70;;;1.10;;
14789;SDS011;7486;51.010;10.366;2022-09-09T01:56:14;2.35;;;1.17;;
14789;SDS011;7486;51.010;10.366;2022-09-09T02:05:11;3.03;;;1.17;;
14789;SDS011;7486;51.010;10.366;2022-09-09T02:07:41;1.55;;;0.88;;
14789;SDS011;7486;51.010;10.366;2022-09-09T02:10:30;2.05;;;1.20;;
14789;SDS011;7486;51.010;10.366;2022-09-09T02:13:12;1.63;;;0.90;;
14789;SDS011;7486;51.010;10.366;2022-09-09T02:15:50;1.38;;;0.98;;
14789;SDS011;7486;51.010;10.366;2022-09-09T02:18:24;2.45;;;1.10;;
14789;SDS011;7486;51.010;10.366;2022-09-09T02:21:07;1.25;;;0.75;;
14789;SDS011;7486;51.010;10.366;2022-09-09T02:23:36;2.22;;;0.90;;
14789;SDS011;7486;51.010;10.366;2022-09-09T02:26:08;1.30;;;0.77;;
14789;SDS011;7486;51.010;10.366;2022-09-09T02:28:38;2.30;;;0.90;;
14789;SDS011;7486;51.010;10.366;2022-09-09T02:31:06;3.13;;;1.02;;
14789;SDS011;7486;51.010;10.366;2022-09-09T02:33:40;2.30;;;0.90;;
14789;SDS011;7486;51.010;10.366;2022-09-09T02:36:11;1.65;;;0.90;;
14789;SDS011;7486;51.010;10.366;2022-09-09T02:38:44;2.30;;;1.00;;
14789;SDS011;7486;51.010;10.366;2022-09-09T02:41:14;2.95;;;1.00;;
14789;SDS011;7486;51.010;10.366;2022-09-09T02:43:41;1.73;;;0.90;;
14789;SDS011;7486;51.010;10.366;2022-09-09T02:46:18;2.15;;;0.95;;
14789;SDS011;7486;51.010;10.366;2022-09-09T02:56:52;2.22;;;1.20;;
14789;SDS011;7486;51.010;10.366;2022-09-09T02:59:26;1.98;;;0.90;;
14789;SDS011;7486;51.010;10.366;2022-09-09T03:01:53;2.92;;;1.00;;
14789;SDS011;7486;51.010;10.366;2022-09-09T03:04:20;0.98;;;0.80;;
14789;SDS011;7486;51.010;10.366;2022-09-09T03:06:48;1.90;;;0.70;;
14789;SDS011;7486;51.010;10.366;2022-09-09T03:09:18;1.08;;;0.70;;
14789;SDS011;7486;51.010;10.366;2022-09-09T03:11:45;2.72;;;1.00;;
14789;SDS011;7486;51.010;10.366;2022-09-09T03:14:14;2.35;;;1.05;;
14789;SDS011;7486;51.010;10.366;2022-09-09T03:16:41;1.67;;;0.93;;
14789;SDS011;7486;51.010;10.366;2022-09-09T03:19:07;1.98;;;0.90;;
14789;SDS011;7486;51.010;10.366;2022-09-09T03:21:35;2.83;;;0.98;;
14789;SDS011;7486;51.010;10.366;2022-09-09T03:24:01;2.42;;;1.08;;
14789;SDS011;7486;51.010;10.366;2022-09-09T03:26:29;2.70;;;1.10;;
14789;SDS011;7486;51.010;10.366;2022-09-09T03:28:56;2.72;;;1.33;;
14789;SDS011;7486;51.010;10.366;2022-09-09T03:31:23;1.85;;;0.90;;
14789;SDS011;7486;51.010;10.366;2022-09-09T03:33:50;2.90;;;1.08;;
14789;SDS011;7486;51.010;10.366;2022-09-09T03:36:18;2.42;;;1.00;;
14789;SDS011;7486;51.010;10.366;2022-09-09T03:38:45;2.38;;;1.02;;
14789;SDS011;7486;51.010;10.366;2022-09-09T03:41:12;1.88;;;0.90;;
14789;SDS011;7486;51.010;10.366;2022-09-09T03:43:38;1.27;;;0.90;;
14789;SDS011;7486;51.010;10.366;2022-09-09T03:46:05;2.17;;;1.02;;
14789;SDS011;7486;51.010;10.366;2022-09-09T03:48:32;2.58;;;1.05;;
14789;SDS011;7486;51.010;10.366;2022-09-09T03:50:59;2.78;;;0.85;;
14789;SDS011;7486;51.010;10.366;2022-09-09T03:53:27;3.63;;;1.20;;
14789;SDS011;7486;51.010;10.366;2022-09-09T03:55:55;1.42;;;0.93;;
14789;SDS011;7486;51.010;10.366;2022-09-09T03:58:25;2.55;;;1.10;;
14789;SDS011;7486;51.010;10.366;2022-09-09T04:00:57;1.42;;;0.90;;
14789;SDS011;7486;51.010;10.366;2022-09-09T04:03:26;2.05;;;0.98;;
14789;SDS011;7486;51.010;10.366;2022-09-09T04:05:55;2.45;;;0.70;;
14789;SDS011;7486;51.010;10.366;2022-09-09T04:08:25;2.05;;;1.00;;
14789;SDS011;7486;51.010;10.366;2022-09-09T04:10:53;3.63;;;1.00;;
14789;SDS011;7486;51.010;10.366;2022-09-09T04:13:20;1.70;;;0.80;;
14789;SDS011;7486;51.010;10.366;2022-09-09T04:15:51;1.55;;;0.93;;
14789;SDS011;7486;51.010;10.366;2022-09-09T04:18:22;1.38;;;0.95;;
14789;SDS011;7486;51.010;10.366;2022-09-09T04:20:50;2.28;;;1.13;;
14789;SDS011;7486;51.010;10.366;2022-09-09T04:23:20;1.77;;;0.90;;
14789;SDS011;7486;51.010;10.366;2022-09-09T04:25:48;3.25;;;1.00;;
14789;SDS011;7486;51.010;10.366;2022-09-09T04:28:21;2.78;;;1.20;;
14789;SDS011;7486;51.010;10.366;2022-09-09T04:30:49;1.15;;;0.93;;
14789;SDS011;7486;51.010;10.366;2022-09-09T04:33:16;3.45;;;1.10;;
14789;SDS011;7486;51.010;10.366;2022-09-09T04:35:46;1.52;;;0.90;;
14789;SDS011;7486;51.010;10.366;2022-09-09T04:38:16;2.33;;;1.02;;
14789;SDS011;7486;51.010;10.366;2022-09-09T04:40:44;2.53;;;1.00;;
14789;SDS011;7486;51.010;10.366;2022-09-09T04:43:13;1.13;;;0.82;;
14789;SDS011;7486;51.010;10.366;2022-09-09T04:45:42;2.67;;;1.00;;
14789;SDS011;7486;51.010;10.366;2022-09-09T04:48:10;3.13;;;1.10;;
14789;SDS011;7486;51.010;10.366;2022-09-09T04:50:37;2.45;;;0.90;;
14789;SDS011;7486;51.010;10.366;2022-09-09T04:53:04;1.75;;;0.93;;
14789;SDS011;7486;51.010;10.366;2022-09-09T04:55:32;2.00;;;0.95;;
14789;SDS011;7486;51.010;10.366;2022-09-09T04:58:06;2.50;;;1.20;;
14789;SDS011;7486;51.010;10.366;2022-09-09T05:00:34;1.25;;;1.00;;
14789;SDS011;7486;51.010;10.366;2022-09-09T05:03:04;3.45;;;1.15;;
14789;SDS011;7486;51.010;10.366;2022-09-09T05:05:33;2.78;;;0.98;;
14789;SDS011;7486;51.010;10.366;2022-09-09T05:08:07;1.77;;;1.10;;
14789;SDS011;7486;51.010;10.366;2022-09-09T05:10:36;2.00;;;1.00;;
14789;SDS011;7486;51.010;10.366;2022-09-09T05:13:05;2.35;;;1.00;;
14789;SDS011;7486;51.010;10.366;2022-09-09T05:15:32;2.42;;;1.00;;
14789;SDS011;7486;51.010;10.366;2022-09-09T05:17:59;1.35;;;1.02;;
14789;SDS011;7486;51.010;10.366;2022-09-09T05:20:29;3.20;;;1.20;;
14789;SDS011;7486;51.010;10.366;2022-09-09T05:22:56;2.95;;;1.30;;
14789;SDS011;7486;51.010;10.366;2022-09-09T05:25:27;2.10;;;0.98;;
14789;SDS011;7486;51.010;10.366;2022-09-09T05:27:54;2.13;;;1.05;;
14789;SDS011;7486;51.010;10.366;2022-09-09T05:30:21;2.72;;;0.98;;
14789;SDS011;7486;51.010;10.366;2022-09-09T05:32:49;4.93;;;1.40;;
14789;SDS011;7486;51.010;10.366;2022-09-09T05:35:17;4.00;;;1.30;;
14789;SDS011;7486;51.010;10.366;2022-09-09T05:37:44;1.48;;;1.02;;
14789;SDS011;7486;51.010;10.366;2022-09-09T05:40:10;1.88;;;1.10;;
14789;SDS011;7486;51.010;10.366;2022-09-09T05:42:38;2.92;;;1.23;;
14789;SDS011;7486;51.010;10.366;2022-09-09T05:45:06;3.88;;;1.33;;
14789;SDS011;7486;51.010;10.366;2022-09-09T05:47:35;2.83;;;1.30;;
14789;SDS011;7486;51.010;10.366;2022-09-09T05:50:05;2.38;;;1.33;;
14789;SDS011;7486;51.010;10.366;2022-09-09T05:52:32;3.15;;;1.63;;
14789;SDS011;7486;51.010;10.366;2022-09-09T05:54:58;1.50;;;1.40;;
14789;SDS011;7486;51.010;10.366;2022-09-09T05:57:25;1.77;;;1.38;;
14789;SDS011;7486;51.010;10.366;2022-09-09T05:59:52;2.00;;;1.30;;
14789;SDS011;7486;51.010;10.366;2022-09-09T06:02:19;2.25;;;1.10;;
14789;SDS011;7486;51.010;10.366;2022-09-09T06:04:46;2.10;;;1.30;;
14789;SDS011;7486;51.010;10.366;2022-09-09T06:07:12;4.25;;;1.23;;
14789;SDS011;7486;51.010;10.366;2022-09-09T06:09:39;2.92;;;1.10;;
14789;SDS011;7486;51.010;10.366;2022-09-09T06:12:07;1.42;;;1.13;;
14789;SDS011;7486;51.010;10.366;2022-09-09T06:14:35;2.80;;;1.20;;
14789;SDS011;7486;51.010;10.366;2022-09-09T06:17:02;2.58;;;1.02;;
14789;SDS011;7486;51.010;10.366;2022-09-09T06:19:29;1.65;;;0.80;;
14789;SDS011;7486;51.010;10.366;2022-09-09T06:21:57;3.35;;;1.00;;
14789;SDS011;7486;51.010;10.366;2022-09-09T06:24:26;2.75;;;1.13;;
14789;SDS011;7486;51.010;10.366;2022-09-09T06:26:52;2.55;;;0.98;;
14789;SDS011;7486;51.010;10.366;2022-09-09T06:29:23;2.25;;;1.00;;
14789;SDS011;7486;51.010;10.366;2022-09-09T06:31:51;3.25;;;1.00;;
14789;SDS011;7486;51.010;10.366;2022-09-09T06:34:23;1.30;;;0.98;;
14789;SDS011;7486;51.010;10.366;2022-09-09T06:36:53;3.42;;;1.23;;
14789;SDS011;7486;51.010;10.366;2022-09-09T06:39:20;3.13;;;1.20;;
14789;SDS011;7486;51.010;10.366;2022-09-09T06:41:47;2.97;;;1.13;;
14789;SDS011;7486;51.010;10.366;2022-09-09T06:44:39;1.67;;;0.85;;
14789;SDS011;7486;51.010;10.366;2022-09-09T06:47:11;3.33;;;0.95;;
14789;SDS011;7486;51.010;10.366;2022-09-09T06:49:39;1.98;;;1.00;;
14789;SDS011;7486;51.010;10.366;2022-09-09T06:52:08;1.25;;;0.90;;
14789;SDS011;7486;51.010;10.366;2022-09-09T06:54:37;1.27;;;0.80;;
14789;SDS011;7486;51.010;10.366;2022-09-09T06:57:04;3.78;;;1.00;;
14789;SDS011;7486;51.010;10.366;2022-09-09T06:59:51;3.17;;;0.93;;
14789;SDS011;7486;51.010;10.366;2022-09-09T07:02:19;1.35;;;0.70;;
14789;SDS011;7486;51.010;10.366;2022-09-09T07:04:46;2.20;;;0.80;;
14789;SDS011;7486;51.010;10.366;2022-09-09T07:07:13;2.28;;;0.90;;
14789;SDS011;7486;51.010;10.366;2022-09-09T07:09:40;1.27;;;0.90;;
14789;SDS011;7486;51.010;10.366;2022-09-09T07:12:07;2.65;;;1.00;;
14789;SDS011;7486;51.010;10.366;2022-09-09T07:14:37;1.77;;;0.77;;
14789;SDS011;7486;51.010;10.366;2022-09-09T07:17:06;2.53;;;0.80;;
14789;SDS011;7486;51.010;10.366;2022-09-09T07:19:36;3.58;;;0.93;;
14789;SDS011;7486;51.010;10.366;2022-09-09T07:22:04;1.65;;;0.80;;
14789;SDS011;7486;51.010;10.366;2022-09-09T07:24:31;2.30;;;1.00;;
14789;SDS011;7486;51.010;10.366;2022-09-09T07:26:58;3.72;;;1.02;;
14789;SDS011;7486;51.010;10.366;2022-09-09T07:29:25;2.17;;;1.02;;
14789;SDS011;7486;51.010;10.366;2022-09-09T07:31:52;2.45;;;0.70;;
14789;SDS011;7486;51.010;10.366;2022-09-09T07:34:24;1.30;;;0.70;;
14789;SDS011;7486;51.010;10.366;2022-09-09T07:36:51;2.58;;;1.00;;
14789;SDS011;7486;51.010;10.366;2022-09-09T07:39:18;2.28;;;0.88;;
14789;SDS011;7486;51.010;10.366;2022-09-09T07:41:48;1.05;;;0.85;;
14789;SDS011;7486;51.010;10.366;2022-09-09T07:44:19;1.70;;;0.88;;
14789;SDS011;7486;51.010;10.366;2022-09-09T07:46:52;1.65;;;0.80;;
14789;SDS011;7486;51.010;10.366;2022-09-09T07:49:25;1.25;;;0.82;;
14789;SDS011;7486;51.010;10.366;2022-09-09T07:51:59;1.38;;;0.90;;
14789;SDS011;7486;51.010;10.366;2022-09-09T07:54:27;1.40;;;0.80;;
14789;SDS011;7486;51.010;10.366;2022-09-09T07:56:54;2.90;;;1.00;;
14789;SDS011;7486;51.010;10.366;2022-09-09T07:59:24;4.43;;;1.10;;
14789;SDS011;7486;51.010;10.366;2022-09-09T08:01:52;3.92;;;0.90;;
14789;SDS011;7486;51.010;10.366;2022-09-09T08:04:22;2.45;;;0.98;;
14789;SDS011;7486;51.010;10.366;2022-09-09T08:06:52;4.47;;;1.10;;
14789;SDS011;7486;51.010;10.366;2022-09-09T08:09:23;2.47;;;0.90;;
14789;SDS011;7486;51.010;10.366;2022-09-09T08:11:51;2.58;;;0.75;;
14789;SDS011;7486;51.010;10.366;2022-09-09T08:14:17;2.45;;;0.88;;
14789;SDS011;7486;51.010;10.366;2022-09-09T08:16:46;2.25;;;0.93;;
14789;SDS011;7486;51.010;10.366;2022-09-09T08:19:17;2.08;;;1.10;;
14789;SDS011;7486;51.010;10.366;2022-09-09T08:21:45;0.70;;;0.70;;
14789;SDS011;7486;51.010;10.366;2022-09-09T08:24:12;2.45;;;0.95;;
14789;SDS011;7486;51.010;10.366;2022-09-09T08:26:40;1.85;;;0.70;;
14789;SDS011;7486;51.010;10.366;2022-09-09T08:29:10;2.35;;;0.80;;
14789;SDS011;7486;51.010;10.366;2022-09-09T08:31:40;2.70;;;0.80;;
14789;SDS011;7486;51.010;10.366;2022-09-09T08:34:09;3.05;;;1.15;;
14789;SDS011;7486;51.010;10.366;2022-09-09T08:36:38;2.65;;;0.90;;
14789;SDS011;7486;51.010;10.366;2022-09-09T08:39:07;2.25;;;1.00;;
14789;SDS011;7486;51.010;10.366;2022-09-09T08:49:42;3.42;;;1.10;;
14789;SDS011;7486;51.010;10.366;2022-09-09T08:52:25;1.98;;;1.00;;
14789;SDS011;7486;51.010;10.366;2022-09-09T08:55:03;1.73;;;0.90;;
14789;SDS011;7486;51.010;10.366;2022-09-09T08:57:39;2.38;;;1.00;;
14789;SDS011;7486;51.010;10.366;2022-09-09T09:00:09;0.82;;;0.80;;
14789;SDS011;7486;51.010;10.366;2022-09-09T09:02:54;1.50;;;0.85;;
14789;SDS011;7486;51.010;10.366;2022-09-09T09:05:33;1.83;;;1.00;;
14789;SDS011;7486;51.010;10.366;2022-09-09T09:08:20;2.65;;;0.90;;
14789;SDS011;7486;51.010;10.366;2022-09-09T09:10:56;3.15;;;0.93;;
14789;SDS011;7486;51.010;10.366;2022-09-09T09:16:42;4.43;;;0.82;;
14789;SDS011;7486;51.010;10.366;2022-09-09T09:19:26;3.17;;;1.00;;
14789;SDS011;7486;51.010;10.366;2022-09-09T09:22:06;1.70;;;0.85;;
14789;SDS011;7486;51.010;10.366;2022-09-09T09:27:34;2.35;;;0.88;;
14789;SDS011;7486;51.010;10.366;2022-09-09T09:30:17;5.72;;;1.30;;
14789;SDS011;7486;51.010;10.366;2022-09-09T09:33:23;1.95;;;1.00;;
14789;SDS011;7486;51.010;10.366;2022-09-09T09:35:51;4.97;;;0.80;;
14789;SDS011;7486;51.010;10.366;2022-09-09T09:38:20;2.28;;;1.02;;
14789;SDS011;7486;51.010;10.366;2022-09-09T09:41:09;2.63;;;1.00;;
14789;SDS011;7486;51.010;10.366;2022-09-09T09:43:37;3.70;;;1.08;;
14789;SDS011;7486;51.010;10.366;2022-09-09T09:46:18;2.75;;;1.00;;
14789;SDS011;7486;51.010;10.366;2022-09-09T09:48:57;2.92;;;1.08;;
14789;SDS011;7486;51.010;10.366;2022-09-09T09:51:32;3.10;;;0.98;;
14789;SDS011;7486;51.010;10.366;2022-09-09T09:56:40;2.40;;;0.90;;
14789;SDS011;7486;51.010;10.366;2022-09-09T10:02:22;1.95;;;0.85;;
14789;SDS011;7486;51.010;10.366;2022-09-09T10:05:05;1.95;;;0.95;;
14789;SDS011;7486;51.010;10.366;2022-09-09T10:07:40;2.33;;;1.10;;
14789;SDS011;7486;51.010;10.366;2022-09-09T10:10:08;1.42;;;0.82;;
14789;SDS011;7486;51.010;10.366;2022-09-09T10:21:14;2.20;;;0.80;;
14789;SDS011;7486;51.010;10.366;2022-09-09T10:30:00;1.65;;;0.80;;
14789;SDS011;7486;51.010;10.366;2022-09-09T10:40:48;2.17;;;0.85;;
14789;SDS011;7486;51.010;10.366;2022-09-09T10:46:14;3.97;;;0.90;;
14789;SDS011;7486;51.010;10.366;2022-09-09T10:48:46;1.48;;;0.70;;
14789;SDS011;7486;51.010;10.366;2022-09-09T10:51:52;3.33;;;0.90;;
14789;SDS011;7486;51.010;10.366;2022-09-09T10:57:31;1.48;;;0.70;;
14789;SDS011;7486;51.010;10.366;2022-09-09T11:00:04;2.22;;;0.80;;
14789;SDS011;7486;51.010;10.366;2022-09-09T11:02:33;3.28;;;0.98;;
14789;SDS011;7486;51.010;10.366;2022-09-09T11:05:09;3.38;;;0.90;;
14789;SDS011;7486;51.010;10.366;2022-09-09T11:07:41;2.28;;;0.80;;
14789;SDS011;7486;51.010;10.366;2022-09-09T11:10:30;2.58;;;0.90;;
14789;SDS011;7486;51.010;10.366;2022-09-09T11:13:02;3.20;;;1.00;;
14789;SDS011;7486;51.010;10.366;2022-09-09T11:15:41;3.72;;;1.00;;
14789;SDS011;7486;51.010;10.366;2022-09-09T11:18:13;2.38;;;0.80;;
14789;SDS011;7486;51.010;10.366;2022-09-09T11:20:46;1.23;;;0.88;;
14789;SDS011;7486;51.010;10.366;2022-09-09T11:23:17;1.73;;;0.73;;
14789;SDS011;7486;51.010;10.366;2022-09-09T11:25:51;2.28;;;0.80;;
14789;SDS011;7486;51.010;10.366;2022-09-09T11:28:32;3.47;;;0.80;;
14789;SDS011;7486;51.010;10.366;2022-09-09T11:42:12;2.30;;;0.98;;
14789;SDS011;7486;51.010;10.366;2022-09-09T11:44:43;1.80;;;0.80;;
14789;SDS011;7486;51.010;10.366;2022-09-09T11:47:21;4.50;;;1.20;;
14789;SDS011;7486;51.010;10.366;2022-09-09T11:52:42;4.55;;;1.10;;
14789;SDS011;7486;51.010;10.366;2022-09-09T11:55:31;2.13;;;0.80;;
14789;SDS011;7486;51.010;10.366;2022-09-09T11:58:02;2.35;;;1.00;;
14789;SDS011;7486;51.010;10.366;2022-09-09T12:00:37;3.63;;;1.00;;
14789;SDS011;7486;51.010;10.366;2022-09-09T12:05:58;2.08;;;0.80;;
14789;SDS011;7486;51.010;10.366;2022-09-09T12:08:29;3.20;;;1.05;;
14789;SDS011;7486;51.010;10.366;2022-09-09T12:10:57;2.85;;;0.68;;
14789;SDS011;7486;51.010;10.366;2022-09-09T12:13:26;3.83;;;0.82;;
14789;SDS011;7486;51.010;10.366;2022-09-09T12:15:54;4.38;;;1.10;;
14789;SDS011;7486;51.010;10.366;2022-09-09T12:18:33;2.53;;;0.85;;
14789;SDS011;7486;51.010;10.366;2022-09-09T12:21:17;1.52;;;0.70;;
14789;SDS011;7486;51.010;10.366;2022-09-09T12:23:55;2.35;;;0.90;;
14789;SDS011;7486;51.010;10.366;2022-09-09T12:26:47;3.97;;;1.08;;
14789;SDS011;7486;51.010;10.366;2022-09-09T12:29:28;2.83;;;0.90;;
14789;SDS011;7486;51.010;10.366;2022-09-09T12:32:11;3.55;;;0.80;;
14789;SDS011;7486;51.010;10.366;2022-09-09T12:37:29;1.48;;;0.70;;
14789;SDS011;7486;51.010;10.366;2022-09-09T12:40:21;2.70;;;0.90;;
14789;SDS011;7486;51.010;10.366;2022-09-09T12:42:53;2.10;;;0.98;;
14789;SDS011;7486;51.010;10.366;2022-09-09T12:45:24;2.97;;;0.93;;
14789;SDS011;7486;51.010;10.366;2022-09-09T12:47:57;1.40;;;0.65;;
14789;SDS011;7486;51.010;10.366;2022-09-09T12:50:30;1.25;;;0.73;;
14789;SDS011;7486;51.010;10.366;2022-09-09T12:53:00;0.98;;;0.60;;
14789;SDS011;7486;51.010;10.366;2022-09-09T12:55:35;3.00;;;0.80;;
14789;SDS011;7486;51.010;10.366;2022-09-09T12:58:04;1.67;;;0.60;;
14789;SDS011;7486;51.010;10.366;2022-09-09T13:00:57;1.02;;;0.60;;
14789;SDS011;7486;51.010;10.366;2022-09-09T13:03:24;2.85;;;0.80;;
14789;SDS011;7486;51.010;10.366;2022-09-09T13:05:52;2.28;;;0.80;;
14789;SDS011;7486;51.010;10.366;2022-09-09T13:08:20;2.10;;;0.80;;
14789;SDS011;7486;51.010;10.366;2022-09-09T13:10:50;2.65;;;0.95;;
14789;SDS011;7486;51.010;10.366;2022-09-09T13:13:28;2.42;;;1.10;;
14789;SDS011;7486;51.010;10.366;2022-09-09T13:16:02;2.97;;;0.90;;
14789;SDS011;7486;51.010;10.366;2022-09-09T13:18:30;2.30;;;0.80;;
14789;SDS011;7486;51.010;10.366;2022-09-09T13:21:00;2.83;;;0.93;;
14789;SDS011;7486;51.010;10.366;2022-09-09T13:23:29;2.95;;;0.80;;
14789;SDS011;7486;51.010;10.366;2022-09-09T13:26:19;2.85;;;0.90;;
14789;SDS011;7486;51.010;10.366;2022-09-09T13:28:52;2.45;;;0.80;;
14789;SDS011;7486;51.010;10.366;2022-09-09T13:31:21;1.98;;;0.65;;
14789;SDS011;7486;51.010;10.366;2022-09-09T13:33:55;3.03;;;0.70;;
14789;SDS011;7486;51.010;10.366;2022-09-09T13:36:32;2.65;;;0.60;;
14789;SDS011;7486;51.010;10.366;2022-09-09T13:39:02;4.10;;;0.80;;
14789;SDS011;7486;51.010;10.366;2022-09-09T13:41:34;2.22;;;0.60;;
14789;SDS011;7486;51.010;10.366;2022-09-09T13:44:02;1.13;;;0.55;;
14789;SDS011;7486;51.010;10.366;2022-09-09T13:49:16;2.15;;;0.63;;
14789;SDS011;7486;51.010;10.366;2022-09-09T13:51:48;1.73;;;0.68;;
14789;SDS011;7486;51.010;10.366;2022-09-09T13:54:17;3.63;;;0.77;;
14789;SDS011;7486;51.010;10.366;2022-09-09T13:56:45;1.95;;;0.60;;
14789;SDS011;7486;51.010;10.366;2022-09-09T13:59:17;2.03;;;0.70;;
14789;SDS011;7486;51.010;10.366;2022-09-09T14:01:46;0.85;;;0.50;;
14789;SDS011;7486;51.010;10.366;2022-09-09T14:04:13;1.63;;;0.70;;
14789;SDS011;7486;51.010;10.366;2022-09-09T14:06:39;2.72;;;0.70;;
14789;SDS011;7486;51.010;10.366;2022-09-09T14:09:07;0.52;;;0.40;;
14789;SDS011;7486;51.010;10.366;2022-09-09T14:11:36;1.88;;;0.65;;
14789;SDS011;7486;51.010;10.366;2022-09-09T14:14:03;2.03;;;0.50;;
14789;SDS011;7486;51.010;10.366;2022-09-09T14:16:30;1.73;;;0.63;;
14789;SDS011;7486;51.010;10.366;2022-09-09T14:18:56;1.05;;;0.43;;
14789;SDS011;7486;51.010;10.366;2022-09-09T14:21:23;2.55;;;0.52;;
14789;SDS011;7486;51.010;10.366;2022-09-09T14:23:51;2.08;;;0.60;;
14789;SDS011;7486;51.010;10.366;2022-09-09T14:26:18;1.92;;;0.50;;
14789;SDS011;7486;51.010;10.366;2022-09-09T14:28:46;1.73;;;0.40;;
14789;SDS011;7486;51.010;10.366;2022-09-09T14:31:22;0.90;;;0.50;;
14789;SDS011;7486;51.010;10.366;2022-09-09T14:33:49;1.95;;;0.77;;
14789;SDS011;7486;51.010;10.366;2022-09-09T14:36:16;2.75;;;0.60;;
14789;SDS011;7486;51.010;10.366;2022-09-09T14:38:43;1.10;;;0.60;;
14789;SDS011;7486;51.010;10.366;2022-09-09T14:41:10;2.08;;;0.60;;
14789;SDS011;7486;51.010;10.366;2022-09-09T14:43:38;1.33;;;0.50;;
14789;SDS011;7486;51.010;10.366;2022-09-09T14:46:06;2.53;;;0.80;;
14789;SDS011;7486;51.010;10.366;2022-09-09T14:48:37;1.80;;;0.70;;
14789;SDS011;7486;51.010;10.366;2022-09-09T14:51:05;1.83;;;0.70;;
14789;SDS011;7486;51.010;10.366;2022-09-09T14:53:52;2.83;;;0.60;;
14789;SDS011;7486;51.010;10.366;2022-09-09T14:56:20;2.22;;;0.70;;
14789;SDS011;7486;51.010;10.366;2022-09-09T14:58:49;0.98;;;0.35;;
14789;SDS011;7486;51.010;10.366;2022-09-09T15:01:30;1.95;;;0.70;;
14789;SDS011;7486;51.010;10.366;2022-09-09T15:04:02;1.17;;;0.65;;
14789;SDS011;7486;51.010;10.366;2022-09-09T15:06:31;2.55;;;0.80;;
14789;SDS011;7486;51.010;10.366;2022-09-09T15:08:59;2.08;;;0.77;;
14789;SDS011;7486;51.010;10.366;2022-09-09T15:11:28;1.58;;;0.85;;
14789;SDS011;7486;51.010;10.366;2022-09-09T15:13:56;2.75;;;0.75;;
14789;SDS011;7486;51.010;10.366;2022-09-09T15:16:24;1.38;;;0.70;;
14789;SDS011;7486;51.010;10.366;2022-09-09T15:18:54;2.10;;;0.70;;
14789;SDS011;7486;51.010;10.366;2022-09-09T15:21:23;2.25;;;0.63;;
14789;SDS011;7486;51.010;10.366;2022-09-09T15:23:51;1.50;;;0.60;;
14789;SDS011;7486;51.010;10.366;2022-09-09T15:26:18;1.45;;;0.80;;
14789;SDS011;7486;51.010;10.366;2022-09-09T15:28:45;1.63;;;0.60;;
14789;SDS011;7486;51.010;10.366;2022-09-09T15:31:14;0.75;;;0.50;;
14789;SDS011;7486;51.010;10.366;2022-09-09T15:33:49;1.48;;;0.63;;
14789;SDS011;7486;51.010;10.366;2022-09-09T15:36:20;1.63;;;0.60;;
14789;SDS011;7486;51.010;10.366;2022-09-09T15:38:49;2.75;;;0.80;;
14789;SDS011;7486;51.010;10.366;2022-09-09T15:41:17;0.88;;;0.50;;
14789;SDS011;7486;51.010;10.366;2022-09-09T15:43:48;2.33;;;0.80;;
14789;SDS011;7486;51.010;10.366;2022-09-09T15:48:44;1.73;;;0.63;;
14789;SDS011;7486;51.010;10.366;2022-09-09T15:51:14;2.28;;;0.88;;
14789;SDS011;7486;51.010;10.366;2022-09-09T15:54:01;2.17;;;0.77;;
14789;SDS011;7486;51.010;10.366;2022-09-09T15:56:28;1.35;;;0.60;;
14789;SDS011;7486;51.010;10.366;2022-09-09T15:58:56;0.63;;;0.47;;
14789;SDS011;7486;51.010;10.366;2022-09-09T16:01:23;1.98;;;0.77;;
14789;SDS011;7486;51.010;10.366;2022-09-09T16:03:50;2.53;;;0.95;;
14789;SDS011;7486;51.010;10.366;2022-09-09T16:06:18;1.42;;;0.77;;
14789;SDS011;7486;51.010;10.366;2022-09-09T16:08:47;1.85;;;0.80;;
14789;SDS011;7486;51.010;10.366;2022-09-09T16:11:20;2.03;;;0.50;;
14789;SDS011;7486;51.010;10.366;2022-09-09T16:13:48;1.55;;;0.70;;
14789;SDS011;7486;51.010;10.366;2022-09-09T16:16:18;2.50;;;0.60;;
14789;SDS011;7486;51.010;10.366;2022-09-09T16:18:54;1.92;;;0.70;;
14789;SDS011;7486;51.010;10.366;2022-09-09T16:23:52;2.60;;;0.77;;
14789;SDS011;7486;51.010;10.366;2022-09-09T16:26:19;2.58;;;0.80;;
14789;SDS011;7486;51.010;10.366;2022-09-09T16:28:47;1.75;;;0.60;;
14789;SDS011;7486;51.010;10.366;2022-09-09T16:31:15;0.85;;;0.50;;
14789;SDS011;7486;51.010;10.366;2022-09-09T16:33:44;1.25;;;0.43;;
14789;SDS011;7486;51.010;10.366;2022-09-09T16:36:15;1.83;;;0.68;;
14789;SDS011;7486;51.010;10.366;2022-09-09T16:38:52;2.03;;;0.70;;
14789;SDS011;7486;51.010;10.366;2022-09-09T16:41:24;1.75;;;0.50;;
14789;SDS011;7486;51.010;10.366;2022-09-09T16:43:53;1.85;;;0.50;;
14789;SDS011;7486;51.010;10.366;2022-09-09T16:46:21;1.65;;;0.65;;
14789;SDS011;7486;51.010;10.366;2022-09-09T16:48:55;1.13;;;0.50;;
14789;SDS011;7486;51.010;10.366;2022-09-09T16:51:27;3.63;;;0.40;;
14789;SDS011;7486;51.010;10.366;2022-09-09T16:53:58;1.60;;;0.57;;
14789;SDS011;7486;51.010;10.366;2022-09-09T16:56:27;2.20;;;0.73;;
14789;SDS011;7486;51.010;10.366;2022-09-09T16:58:59;1.40;;;0.63;;
14789;SDS011;7486;51.010;10.366;2022-09-09T17:01:31;2.13;;;0.73;;
14789;SDS011;7486;51.010;10.366;2022-09-09T17:04:00;0.70;;;0.70;;
14789;SDS011;7486;51.010;10.366;2022-09-09T17:06:28;1.60;;;0.52;;
14789;SDS011;7486;51.010;10.366;2022-09-09T17:08:57;1.70;;;0.70;;
14789;SDS011;7486;51.010;10.366;2022-09-09T17:11:24;3.58;;;0.95;;